sensor_id;sensor_type;location;lat;lon;timestamp;P1;durP1;ratioP1;P2;durP2;ratioP2
5999;SDS011;3028;49.468;7.694;2023-07-09T00:01:51;5.85;;;4.07;;
5999;SDS011;3028;49.468;7.694;2023-07-09T00:03:53;6.32;;;3.78;;
5999;SDS011;3028;49.468;7.694;2023-07-09T00:05:55;6.13;;;4.50;;
5999;SDS011;3028;49.468;7.694;2023-07-09T00:07:57;4.30;;;3.88;;
5999;SDS011;3028;49.468;7.694;2023-07-09T00:09:59;4.70;;;4.30;;
5999;SDS011;3028;49.468;7.694;2023-07-09T00:12:01;4.38;;;4.07;;
5999;SDS011;3028;49.468;7.694;2023-07-09T00:14:04;4.97;;;4.45;;
5999;SDS011;3028;49.468;7.694;2023-07-09T00:16:10;4.45;;;4.05;;
5999;SDS011;3028;49.468;7.694;2023-07-09T00:18:14;4.47;;;4.07;;
5999;SDS011;3028;49.468;7.694;2023-07-09T00:20:17;6.97;;;4.60;;
5999;SDS011;3028;49.468;7.694;2023-07-09T00:22:19;4.65;;;4.25;;
5999;SDS011;3028;49.468;7.694;2023-07-09T00:24:21;4.22;;;3.72;;
5999;SDS011;3028;49.468;7.694;2023-07-09T00:26:23;4.63;;;4.07;;
5999;SDS011;3028;49.468;7.694;2023-07-09T00:28:25;3.80;;;3.50;;
5999;SDS011;3028;49.468;7.694;2023-07-09T00:30:26;6.05;;;4.07;;
5999;SDS011;3028;49.468;7.694;2023-07-09T00:32:28;4.97;;;4.45;;
5999;SDS011;3028;49.468;7.694;2023-07-09T00:34:30;5.90;;;4.43;;
5999;SDS011;3028;49.468;7.694;2023-07-09T00:36:31;9.18;;;4.15;;
5999;SDS011;3028;49.468;7.694;2023-07-09T00:38:33;4.70;;;3.70;;
5999;SDS011;3028;49.468;7.694;2023-07-09T00:40:45;4.95;;;4.20;;
5999;SDS011;3028;49.468;7.694;2023-07-09T00:43:09;4.40;;;3.88;;
5999;SDS011;3028;49.468;7.694;2023-07-09T00:45:23;5.63;;;4.60;;
5999;SDS011;3028;49.468;7.694;2023-07-09T00:47:39;6.35;;;4.38;;
5999;SDS011;3028;49.468;7.694;2023-07-09T00:49:46;6.90;;;3.53;;
5999;SDS011;3028;49.468;7.694;2023-07-09T00:51:48;5.53;;;4.30;;
5999;SDS011;3028;49.468;7.694;2023-07-09T00:53:51;4.97;;;4.32;;
5999;SDS011;3028;49.468;7.694;2023-07-09T00:56:02;5.10;;;4.55;;
5999;SDS011;3028;49.468;7.694;2023-07-09T00:58:08;5.60;;;4.68;;
5999;SDS011;3028;49.468;7.694;2023-07-09T01:00:11;4.40;;;4.00;;
5999;SDS011;3028;49.468;7.694;2023-07-09T01:02:16;5.65;;;5.07;;
5999;SDS011;3028;49.468;7.694;2023-07-09T01:04:19;4.57;;;4.18;;
5999;SDS011;3028;49.468;7.694;2023-07-09T01:06:34;4.38;;;3.97;;
5999;SDS011;3028;49.468;7.694;2023-07-09T01:08:38;5.07;;;3.95;;
5999;SDS011;3028;49.468;7.694;2023-07-09T01:10:42;6.22;;;4.30;;
5999;SDS011;3028;49.468;7.694;2023-07-09T01:12:44;4.72;;;4.18;;
5999;SDS011;3028;49.468;7.694;2023-07-09T01:14:48;4.93;;;4.30;;
5999;SDS011;3028;49.468;7.694;2023-07-09T01:16:53;7.47;;;4.07;;
5999;SDS011;3028;49.468;7.694;2023-07-09T01:18:58;5.32;;;4.85;;
5999;SDS011;3028;49.468;7.694;2023-07-09T01:21:02;4.68;;;4.25;;
5999;SDS011;3028;49.468;7.694;2023-07-09T01:23:09;4.70;;;3.55;;
5999;SDS011;3028;49.468;7.694;2023-07-09T01:25:10;5.00;;;4.53;;
5999;SDS011;3028;49.468;7.694;2023-07-09T01:27:13;6.78;;;4.28;;
5999;SDS011;3028;49.468;7.694;2023-07-09T01:29:14;6.05;;;5.55;;
5999;SDS011;3028;49.468;7.694;2023-07-09T01:31:16;4.80;;;4.28;;
5999;SDS011;3028;49.468;7.694;2023-07-09T01:33:18;7.90;;;4.82;;
5999;SDS011;3028;49.468;7.694;2023-07-09T01:35:20;5.30;;;4.65;;
5999;SDS011;3028;49.468;7.694;2023-07-09T01:37:25;5.35;;;4.60;;
5999;SDS011;3028;49.468;7.694;2023-07-09T01:39:28;4.40;;;4.00;;
5999;SDS011;3028;49.468;7.694;2023-07-09T01:41:29;4.53;;;4.13;;
5999;SDS011;3028;49.468;7.694;2023-07-09T01:43:35;4.65;;;4.13;;
5999;SDS011;3028;49.468;7.694;2023-07-09T01:45:37;5.03;;;4.43;;
5999;SDS011;3028;49.468;7.694;2023-07-09T01:47:39;4.75;;;4.35;;
5999;SDS011;3028;49.468;7.694;2023-07-09T01:49:41;4.88;;;4.18;;
5999;SDS011;3028;49.468;7.694;2023-07-09T01:51:42;4.60;;;3.92;;
5999;SDS011;3028;49.468;7.694;2023-07-09T01:53:44;5.32;;;4.60;;
5999;SDS011;3028;49.468;7.694;2023-07-09T01:55:46;8.05;;;4.35;;
5999;SDS011;3028;49.468;7.694;2023-07-09T01:57:47;4.38;;;3.90;;
5999;SDS011;3028;49.468;7.694;2023-07-09T01:59:53;4.93;;;4.25;;
5999;SDS011;3028;49.468;7.694;2023-07-09T02:01:56;5.63;;;5.07;;
5999;SDS011;3028;49.468;7.694;2023-07-09T02:06:28;4.65;;;4.20;;
5999;SDS011;3028;49.468;7.694;2023-07-09T02:08:33;4.22;;;3.85;;
5999;SDS011;3028;49.468;7.694;2023-07-09T02:10:35;5.07;;;4.68;;
5999;SDS011;3028;49.468;7.694;2023-07-09T02:12:36;5.53;;;4.40;;
5999;SDS011;3028;49.468;7.694;2023-07-09T02:14:38;5.78;;;5.32;;
5999;SDS011;3028;49.468;7.694;2023-07-09T02:16:40;5.68;;;4.50;;
5999;SDS011;3028;49.468;7.694;2023-07-09T02:18:42;5.22;;;4.72;;
5999;SDS011;3028;49.468;7.694;2023-07-09T02:20:45;5.05;;;3.85;;
5999;SDS011;3028;49.468;7.694;2023-07-09T02:22:49;4.22;;;3.83;;
5999;SDS011;3028;49.468;7.694;2023-07-09T02:24:51;5.93;;;5.35;;
5999;SDS011;3028;49.468;7.694;2023-07-09T02:26:54;5.82;;;4.78;;
5999;SDS011;3028;49.468;7.694;2023-07-09T02:28:56;6.88;;;4.85;;
5999;SDS011;3028;49.468;7.694;2023-07-09T02:30:58;5.13;;;4.68;;
5999;SDS011;3028;49.468;7.694;2023-07-09T02:32:59;5.13;;;4.63;;
5999;SDS011;3028;49.468;7.694;2023-07-09T02:35:01;4.80;;;4.40;;
5999;SDS011;3028;49.468;7.694;2023-07-09T02:37:03;8.70;;;4.82;;
5999;SDS011;3028;49.468;7.694;2023-07-09T02:39:04;6.53;;;5.03;;
5999;SDS011;3028;49.468;7.694;2023-07-09T02:41:06;5.53;;;4.43;;
5999;SDS011;3028;49.468;7.694;2023-07-09T02:43:07;5.68;;;4.35;;
5999;SDS011;3028;49.468;7.694;2023-07-09T02:45:09;5.22;;;4.82;;
5999;SDS011;3028;49.468;7.694;2023-07-09T02:47:11;5.38;;;4.85;;
5999;SDS011;3028;49.468;7.694;2023-07-09T02:49:14;6.18;;;4.38;;
5999;SDS011;3028;49.468;7.694;2023-07-09T02:51:16;5.60;;;4.95;;
5999;SDS011;3028;49.468;7.694;2023-07-09T02:53:17;5.47;;;5.00;;
5999;SDS011;3028;49.468;7.694;2023-07-09T02:55:19;4.72;;;4.32;;
5999;SDS011;3028;49.468;7.694;2023-07-09T02:57:20;5.65;;;5.13;;
5999;SDS011;3028;49.468;7.694;2023-07-09T02:59:22;5.47;;;4.32;;
5999;SDS011;3028;49.468;7.694;2023-07-09T03:01:24;4.40;;;4.10;;
5999;SDS011;3028;49.468;7.694;2023-07-09T03:03:28;5.90;;;5.32;;
5999;SDS011;3028;49.468;7.694;2023-07-09T03:05:30;6.43;;;5.10;;
5999;SDS011;3028;49.468;7.694;2023-07-09T03:07:32;5.80;;;5.15;;
5999;SDS011;3028;49.468;7.694;2023-07-09T03:09:33;4.82;;;4.38;;
5999;SDS011;3028;49.468;7.694;2023-07-09T03:11:35;5.78;;;5.15;;
5999;SDS011;3028;49.468;7.694;2023-07-09T03:13:37;5.32;;;4.75;;
5999;SDS011;3028;49.468;7.694;2023-07-09T03:15:39;4.75;;;4.43;;
5999;SDS011;3028;49.468;7.694;2023-07-09T03:17:40;6.82;;;5.57;;
5999;SDS011;3028;49.468;7.694;2023-07-09T03:19:42;5.70;;;5.20;;
5999;SDS011;3028;49.468;7.694;2023-07-09T03:21:43;6.40;;;4.95;;
5999;SDS011;3028;49.468;7.694;2023-07-09T03:23:45;5.80;;;5.30;;
5999;SDS011;3028;49.468;7.694;2023-07-09T03:25:47;4.95;;;4.47;;
5999;SDS011;3028;49.468;7.694;2023-07-09T03:27:48;5.32;;;4.82;;
5999;SDS011;3028;49.468;7.694;2023-07-09T03:29:50;5.80;;;5.30;;
5999;SDS011;3028;49.468;7.694;2023-07-09T03:31:52;4.68;;;4.28;;
5999;SDS011;3028;49.468;7.694;2023-07-09T03:33:53;6.03;;;5.47;;
5999;SDS011;3028;49.468;7.694;2023-07-09T03:35:55;5.88;;;4.97;;
5999;SDS011;3028;49.468;7.694;2023-07-09T03:37:57;6.03;;;5.07;;
5999;SDS011;3028;49.468;7.694;2023-07-09T03:39:58;5.40;;;4.88;;
5999;SDS011;3028;49.468;7.694;2023-07-09T03:42:00;5.57;;;5.18;;
5999;SDS011;3028;49.468;7.694;2023-07-09T03:44:02;4.63;;;4.22;;
5999;SDS011;3028;49.468;7.694;2023-07-09T03:46:04;5.70;;;5.18;;
5999;SDS011;3028;49.468;7.694;2023-07-09T03:48:06;6.05;;;5.47;;
5999;SDS011;3028;49.468;7.694;2023-07-09T03:50:08;5.05;;;4.65;;
5999;SDS011;3028;49.468;7.694;2023-07-09T03:52:10;4.68;;;4.10;;
5999;SDS011;3028;49.468;7.694;2023-07-09T03:54:12;5.68;;;5.18;;
5999;SDS011;3028;49.468;7.694;2023-07-09T03:56:13;5.30;;;4.88;;
5999;SDS011;3028;49.468;7.694;2023-07-09T03:58:15;4.90;;;4.22;;
5999;SDS011;3028;49.468;7.694;2023-07-09T04:00:17;5.85;;;5.35;;
5999;SDS011;3028;49.468;7.694;2023-07-09T04:02:18;5.90;;;5.43;;
5999;SDS011;3028;49.468;7.694;2023-07-09T04:04:20;5.28;;;4.80;;
5999;SDS011;3028;49.468;7.694;2023-07-09T04:06:22;5.55;;;4.78;;
5999;SDS011;3028;49.468;7.694;2023-07-09T04:08:24;5.07;;;4.57;;
5999;SDS011;3028;49.468;7.694;2023-07-09T04:10:26;5.53;;;5.03;;
5999;SDS011;3028;49.468;7.694;2023-07-09T04:12:28;5.82;;;4.97;;
5999;SDS011;3028;49.468;7.694;2023-07-09T04:14:29;5.20;;;4.68;;
5999;SDS011;3028;49.468;7.694;2023-07-09T04:16:31;5.43;;;5.00;;
5999;SDS011;3028;49.468;7.694;2023-07-09T04:18:33;5.93;;;5.22;;
5999;SDS011;3028;49.468;7.694;2023-07-09T04:20:34;5.88;;;5.40;;
5999;SDS011;3028;49.468;7.694;2023-07-09T04:22:36;5.60;;;5.20;;
5999;SDS011;3028;49.468;7.694;2023-07-09T04:24:38;5.55;;;5.03;;
5999;SDS011;3028;49.468;7.694;2023-07-09T04:26:40;5.93;;;5.43;;
5999;SDS011;3028;49.468;7.694;2023-07-09T04:28:42;6.03;;;5.50;;
5999;SDS011;3028;49.468;7.694;2023-07-09T04:30:50;4.85;;;4.30;;
5999;SDS011;3028;49.468;7.694;2023-07-09T04:32:52;5.93;;;5.28;;
5999;SDS011;3028;49.468;7.694;2023-07-09T04:34:53;6.45;;;4.55;;
5999;SDS011;3028;49.468;7.694;2023-07-09T04:36:55;5.60;;;5.18;;
5999;SDS011;3028;49.468;7.694;2023-07-09T04:38:57;4.35;;;4.03;;
5999;SDS011;3028;49.468;7.694;2023-07-09T04:40:58;4.95;;;4.53;;
5999;SDS011;3028;49.468;7.694;2023-07-09T04:43:00;4.72;;;4.40;;
5999;SDS011;3028;49.468;7.694;2023-07-09T04:45:02;5.35;;;4.78;;
5999;SDS011;3028;49.468;7.694;2023-07-09T04:47:04;5.72;;;5.22;;
5999;SDS011;3028;49.468;7.694;2023-07-09T04:49:06;5.43;;;4.93;;
5999;SDS011;3028;49.468;7.694;2023-07-09T04:51:07;5.22;;;4.75;;
5999;SDS011;3028;49.468;7.694;2023-07-09T04:53:09;5.40;;;4.90;;
5999;SDS011;3028;49.468;7.694;2023-07-09T04:55:12;5.80;;;5.20;;
5999;SDS011;3028;49.468;7.694;2023-07-09T04:57:14;5.75;;;5.25;;
5999;SDS011;3028;49.468;7.694;2023-07-09T04:59:16;9.55;;;5.15;;
5999;SDS011;3028;49.468;7.694;2023-07-09T05:01:17;5.40;;;4.95;;
5999;SDS011;3028;49.468;7.694;2023-07-09T05:03:19;5.97;;;5.47;;
5999;SDS011;3028;49.468;7.694;2023-07-09T05:05:21;7.95;;;7.28;;
5999;SDS011;3028;49.468;7.694;2023-07-09T05:07:22;6.68;;;6.07;;
5999;SDS011;3028;49.468;7.694;2023-07-09T05:09:24;6.45;;;5.78;;
5999;SDS011;3028;49.468;7.694;2023-07-09T05:11:26;6.07;;;5.47;;
5999;SDS011;3028;49.468;7.694;2023-07-09T05:13:27;7.35;;;6.63;;
5999;SDS011;3028;49.468;7.694;2023-07-09T05:15:29;6.45;;;5.95;;
5999;SDS011;3028;49.468;7.694;2023-07-09T05:17:31;5.90;;;5.13;;
5999;SDS011;3028;49.468;7.694;2023-07-09T05:19:33;7.28;;;5.50;;
5999;SDS011;3028;49.468;7.694;2023-07-09T05:21:35;5.43;;;4.97;;
5999;SDS011;3028;49.468;7.694;2023-07-09T05:23:36;5.63;;;5.18;;
5999;SDS011;3028;49.468;7.694;2023-07-09T05:25:38;6.25;;;5.45;;
5999;SDS011;3028;49.468;7.694;2023-07-09T05:27:39;5.90;;;5.32;;
5999;SDS011;3028;49.468;7.694;2023-07-09T05:29:41;6.57;;;5.15;;
5999;SDS011;3028;49.468;7.694;2023-07-09T05:31:43;5.75;;;5.05;;
5999;SDS011;3028;49.468;7.694;2023-07-09T05:33:45;6.55;;;5.28;;
5999;SDS011;3028;49.468;7.694;2023-07-09T05:35:46;7.32;;;4.85;;
5999;SDS011;3028;49.468;7.694;2023-07-09T05:37:48;5.25;;;4.85;;
5999;SDS011;3028;49.468;7.694;2023-07-09T05:39:50;6.60;;;5.82;;
5999;SDS011;3028;49.468;7.694;2023-07-09T05:41:51;5.20;;;4.65;;
5999;SDS011;3028;49.468;7.694;2023-07-09T05:43:53;4.93;;;4.43;;
5999;SDS011;3028;49.468;7.694;2023-07-09T05:45:54;6.13;;;5.35;;
5999;SDS011;3028;49.468;7.694;2023-07-09T05:47:57;10.70;;;5.25;;
5999;SDS011;3028;49.468;7.694;2023-07-09T05:49:59;8.50;;;4.38;;
5999;SDS011;3028;49.468;7.694;2023-07-09T05:52:00;5.68;;;4.97;;
5999;SDS011;3028;49.468;7.694;2023-07-09T05:54:02;7.50;;;5.15;;
5999;SDS011;3028;49.468;7.694;2023-07-09T05:56:04;4.68;;;4.15;;
5999;SDS011;3028;49.468;7.694;2023-07-09T05:58:06;5.28;;;4.78;;
5999;SDS011;3028;49.468;7.694;2023-07-09T06:00:08;4.40;;;4.00;;
5999;SDS011;3028;49.468;7.694;2023-07-09T06:02:13;4.20;;;3.80;;
5999;SDS011;3028;49.468;7.694;2023-07-09T06:04:16;7.70;;;5.97;;
5999;SDS011;3028;49.468;7.694;2023-07-09T06:06:19;4.85;;;4.45;;
5999;SDS011;3028;49.468;7.694;2023-07-09T06:08:21;5.28;;;4.32;;
5999;SDS011;3028;49.468;7.694;2023-07-09T06:10:23;4.90;;;3.97;;
5999;SDS011;3028;49.468;7.694;2023-07-09T06:12:24;6.57;;;4.43;;
5999;SDS011;3028;49.468;7.694;2023-07-09T06:14:27;5.45;;;4.85;;
5999;SDS011;3028;49.468;7.694;2023-07-09T06:16:28;5.82;;;5.13;;
5999;SDS011;3028;49.468;7.694;2023-07-09T06:18:30;5.32;;;4.82;;
5999;SDS011;3028;49.468;7.694;2023-07-09T06:20:32;4.70;;;4.28;;
5999;SDS011;3028;49.468;7.694;2023-07-09T06:22:34;5.70;;;4.75;;
5999;SDS011;3028;49.468;7.694;2023-07-09T06:24:36;6.72;;;5.03;;
5999;SDS011;3028;49.468;7.694;2023-07-09T06:26:38;4.97;;;4.40;;
5999;SDS011;3028;49.468;7.694;2023-07-09T06:28:41;6.28;;;5.65;;
5999;SDS011;3028;49.468;7.694;2023-07-09T06:30:43;4.90;;;4.50;;
5999;SDS011;3028;49.468;7.694;2023-07-09T06:32:47;5.55;;;5.03;;
5999;SDS011;3028;49.468;7.694;2023-07-09T06:34:50;4.70;;;4.30;;
5999;SDS011;3028;49.468;7.694;2023-07-09T06:36:52;6.40;;;5.07;;
5999;SDS011;3028;49.468;7.694;2023-07-09T06:38:53;5.78;;;4.45;;
5999;SDS011;3028;49.468;7.694;2023-07-09T06:40:55;10.90;;;5.65;;
5999;SDS011;3028;49.468;7.694;2023-07-09T06:42:58;6.30;;;5.75;;
5999;SDS011;3028;49.468;7.694;2023-07-09T06:44:59;5.82;;;4.63;;
5999;SDS011;3028;49.468;7.694;2023-07-09T06:47:01;5.28;;;4.75;;
5999;SDS011;3028;49.468;7.694;2023-07-09T06:49:03;6.00;;;5.07;;
5999;SDS011;3028;49.468;7.694;2023-07-09T06:51:06;5.22;;;4.63;;
5999;SDS011;3028;49.468;7.694;2023-07-09T06:53:08;8.70;;;5.03;;
5999;SDS011;3028;49.468;7.694;2023-07-09T06:55:10;5.05;;;4.55;;
5999;SDS011;3028;49.468;7.694;2023-07-09T06:57:12;4.75;;;4.18;;
5999;SDS011;3028;49.468;7.694;2023-07-09T06:59:14;4.90;;;4.40;;
5999;SDS011;3028;49.468;7.694;2023-07-09T07:01:15;5.57;;;4.38;;
5999;SDS011;3028;49.468;7.694;2023-07-09T07:03:20;4.05;;;3.70;;
5999;SDS011;3028;49.468;7.694;2023-07-09T07:05:25;5.20;;;3.80;;
5999;SDS011;3028;49.468;7.694;2023-07-09T07:07:27;5.30;;;4.63;;
5999;SDS011;3028;49.468;7.694;2023-07-09T07:09:29;8.73;;;4.50;;
5999;SDS011;3028;49.468;7.694;2023-07-09T07:11:31;5.03;;;4.40;;
5999;SDS011;3028;49.468;7.694;2023-07-09T07:13:36;5.32;;;4.15;;
5999;SDS011;3028;49.468;7.694;2023-07-09T07:15:40;4.63;;;4.22;;
5999;SDS011;3028;49.468;7.694;2023-07-09T07:17:42;4.82;;;4.07;;
5999;SDS011;3028;49.468;7.694;2023-07-09T07:19:43;4.18;;;3.40;;
5999;SDS011;3028;49.468;7.694;2023-07-09T07:21:45;7.90;;;5.10;;
5999;SDS011;3028;49.468;7.694;2023-07-09T07:23:46;5.95;;;5.22;;
5999;SDS011;3028;49.468;7.694;2023-07-09T07:25:48;4.47;;;4.03;;
5999;SDS011;3028;49.468;7.694;2023-07-09T07:27:50;6.30;;;5.32;;
5999;SDS011;3028;49.468;7.694;2023-07-09T07:29:52;4.45;;;4.05;;
5999;SDS011;3028;49.468;7.694;2023-07-09T07:31:54;4.90;;;4.50;;
5999;SDS011;3028;49.468;7.694;2023-07-09T07:33:56;6.43;;;4.00;;
5999;SDS011;3028;49.468;7.694;2023-07-09T07:35:58;8.95;;;3.92;;
5999;SDS011;3028;49.468;7.694;2023-07-09T07:38:19;5.07;;;4.68;;
5999;SDS011;3028;49.468;7.694;2023-07-09T07:40:21;5.05;;;3.97;;
5999;SDS011;3028;49.468;7.694;2023-07-09T07:42:23;9.80;;;4.63;;
5999;SDS011;3028;49.468;7.694;2023-07-09T07:44:24;6.05;;;3.95;;
5999;SDS011;3028;49.468;7.694;2023-07-09T07:46:26;4.20;;;3.80;;
5999;SDS011;3028;49.468;7.694;2023-07-09T07:48:28;7.50;;;3.72;;
5999;SDS011;3028;49.468;7.694;2023-07-09T07:50:29;4.68;;;4.07;;
5999;SDS011;3028;49.468;7.694;2023-07-09T07:52:31;5.30;;;4.07;;
5999;SDS011;3028;49.468;7.694;2023-07-09T07:54:33;4.38;;;3.92;;
5999;SDS011;3028;49.468;7.694;2023-07-09T07:56:36;6.22;;;4.65;;
5999;SDS011;3028;49.468;7.694;2023-07-09T07:58:41;4.70;;;4.07;;
5999;SDS011;3028;49.468;7.694;2023-07-09T08:00:42;4.50;;;4.07;;
5999;SDS011;3028;49.468;7.694;2023-07-09T08:02:44;4.38;;;4.00;;
5999;SDS011;3028;49.468;7.694;2023-07-09T08:04:46;4.82;;;4.18;;
5999;SDS011;3028;49.468;7.694;2023-07-09T08:06:48;4.10;;;3.58;;
5999;SDS011;3028;49.468;7.694;2023-07-09T08:08:49;4.18;;;3.78;;
5999;SDS011;3028;49.468;7.694;2023-07-09T08:10:51;10.90;;;3.75;;
5999;SDS011;3028;49.468;7.694;2023-07-09T08:12:53;4.35;;;3.60;;
5999;SDS011;3028;49.468;7.694;2023-07-09T08:14:58;5.82;;;4.72;;
5999;SDS011;3028;49.468;7.694;2023-07-09T08:16:59;5.63;;;4.18;;
5999;SDS011;3028;49.468;7.694;2023-07-09T08:19:01;4.15;;;3.75;;
5999;SDS011;3028;49.468;7.694;2023-07-09T08:21:03;4.05;;;3.30;;
5999;SDS011;3028;49.468;7.694;2023-07-09T08:23:04;5.30;;;3.30;;
5999;SDS011;3028;49.468;7.694;2023-07-09T08:25:06;4.80;;;3.47;;
5999;SDS011;3028;49.468;7.694;2023-07-09T08:27:08;4.30;;;3.40;;
5999;SDS011;3028;49.468;7.694;2023-07-09T08:29:10;4.00;;;3.42;;
5999;SDS011;3028;49.468;7.694;2023-07-09T08:31:12;4.25;;;3.40;;
5999;SDS011;3028;49.468;7.694;2023-07-09T08:33:14;8.93;;;3.38;;
5999;SDS011;3028;49.468;7.694;2023-07-09T08:35:15;3.38;;;3.08;;
5999;SDS011;3028;49.468;7.694;2023-07-09T08:37:20;4.68;;;3.47;;
5999;SDS011;3028;49.468;7.694;2023-07-09T08:39:22;5.68;;;3.63;;
5999;SDS011;3028;49.468;7.694;2023-07-09T08:41:35;4.10;;;3.67;;
5999;SDS011;3028;49.468;7.694;2023-07-09T08:46:02;5.85;;;3.72;;
5999;SDS011;3028;49.468;7.694;2023-07-09T08:48:09;4.60;;;2.88;;
5999;SDS011;3028;49.468;7.694;2023-07-09T08:50:16;7.38;;;3.47;;
5999;SDS011;3028;49.468;7.694;2023-07-09T08:52:26;3.88;;;3.03;;
5999;SDS011;3028;49.468;7.694;2023-07-09T08:54:32;6.07;;;3.70;;
5999;SDS011;3028;49.468;7.694;2023-07-09T08:56:36;4.78;;;2.40;;
5999;SDS011;3028;49.468;7.694;2023-07-09T08:58:37;4.47;;;3.80;;
5999;SDS011;3028;49.468;7.694;2023-07-09T09:00:49;3.28;;;2.58;;
5999;SDS011;3028;49.468;7.694;2023-07-09T09:03:02;3.35;;;2.80;;
5999;SDS011;3028;49.468;7.694;2023-07-09T09:05:06;3.70;;;3.15;;
5999;SDS011;3028;49.468;7.694;2023-07-09T09:07:55;5.07;;;3.30;;
5999;SDS011;3028;49.468;7.694;2023-07-09T09:09:49;3.10;;;2.53;;
5999;SDS011;3028;49.468;7.694;2023-07-09T09:11:59;4.65;;;3.17;;
5999;SDS011;3028;49.468;7.694;2023-07-09T09:14:23;3.42;;;3.13;;
5999;SDS011;3028;49.468;7.694;2023-07-09T09:16:30;4.95;;;3.15;;
5999;SDS011;3028;49.468;7.694;2023-07-09T09:18:42;4.43;;;3.33;;
5999;SDS011;3028;49.468;7.694;2023-07-09T09:20:58;4.20;;;3.03;;
5999;SDS011;3028;49.468;7.694;2023-07-09T09:27:15;4.40;;;2.63;;
5999;SDS011;3028;49.468;7.694;2023-07-09T09:29:17;4.22;;;3.88;;
5999;SDS011;3028;49.468;7.694;2023-07-09T09:31:18;6.47;;;2.55;;
5999;SDS011;3028;49.468;7.694;2023-07-09T09:33:20;4.22;;;2.95;;
5999;SDS011;3028;49.468;7.694;2023-07-09T09:35:27;4.97;;;3.53;;
5999;SDS011;3028;49.468;7.694;2023-07-09T09:37:31;4.07;;;3.33;;
5999;SDS011;3028;49.468;7.694;2023-07-09T09:39:33;3.70;;;2.85;;
5999;SDS011;3028;49.468;7.694;2023-07-09T09:41:39;5.53;;;2.80;;
5999;SDS011;3028;49.468;7.694;2023-07-09T09:43:44;3.90;;;3.13;;
5999;SDS011;3028;49.468;7.694;2023-07-09T09:45:47;4.53;;;3.30;;
5999;SDS011;3028;49.468;7.694;2023-07-09T09:47:50;4.65;;;3.15;;
5999;SDS011;3028;49.468;7.694;2023-07-09T09:49:52;5.18;;;3.88;;
5999;SDS011;3028;49.468;7.694;2023-07-09T09:51:54;5.47;;;3.28;;
5999;SDS011;3028;49.468;7.694;2023-07-09T09:53:58;3.53;;;2.63;;
5999;SDS011;3028;49.468;7.694;2023-07-09T09:56:03;22.90;;;2.88;;
5999;SDS011;3028;49.468;7.694;2023-07-09T09:58:16;2.90;;;2.60;;
5999;SDS011;3028;49.468;7.694;2023-07-09T10:00:20;4.93;;;3.15;;
5999;SDS011;3028;49.468;7.694;2023-07-09T10:02:24;3.58;;;2.33;;
5999;SDS011;3028;49.468;7.694;2023-07-09T10:04:26;3.95;;;2.97;;
5999;SDS011;3028;49.468;7.694;2023-07-09T10:06:42;3.35;;;3.05;;
5999;SDS011;3028;49.468;7.694;2023-07-09T10:08:49;3.08;;;2.50;;
5999;SDS011;3028;49.468;7.694;2023-07-09T10:11:16;4.30;;;2.67;;
5999;SDS011;3028;49.468;7.694;2023-07-09T10:13:23;4.85;;;2.88;;
5999;SDS011;3028;49.468;7.694;2023-07-09T10:19:47;3.35;;;2.63;;
5999;SDS011;3028;49.468;7.694;2023-07-09T10:26:27;3.10;;;2.45;;
5999;SDS011;3028;49.468;7.694;2023-07-09T10:28:41;6.75;;;3.03;;
5999;SDS011;3028;49.468;7.694;2023-07-09T10:35:25;4.80;;;3.13;;
5999;SDS011;3028;49.468;7.694;2023-07-09T10:39:47;3.17;;;2.60;;
5999;SDS011;3028;49.468;7.694;2023-07-09T10:41:51;11.90;;;2.92;;
5999;SDS011;3028;49.468;7.694;2023-07-09T10:44:03;4.68;;;2.75;;
5999;SDS011;3028;49.468;7.694;2023-07-09T10:46:20;8.55;;;2.58;;
5999;SDS011;3028;49.468;7.694;2023-07-09T10:48:36;5.82;;;3.33;;
5999;SDS011;3028;49.468;7.694;2023-07-09T10:50:41;3.22;;;2.80;;
5999;SDS011;3028;49.468;7.694;2023-07-09T10:52:45;2.90;;;2.47;;
5999;SDS011;3028;49.468;7.694;2023-07-09T10:54:54;2.25;;;2.05;;
5999;SDS011;3028;49.468;7.694;2023-07-09T10:59:32;3.67;;;2.10;;
5999;SDS011;3028;49.468;7.694;2023-07-09T11:01:37;2.83;;;2.60;;
5999;SDS011;3028;49.468;7.694;2023-07-09T11:03:47;9.43;;;2.72;;
5999;SDS011;3028;49.468;7.694;2023-07-09T11:05:50;3.42;;;2.80;;
5999;SDS011;3028;49.468;7.694;2023-07-09T11:08:06;3.58;;;2.40;;
5999;SDS011;3028;49.468;7.694;2023-07-09T11:10:34;3.90;;;2.55;;
5999;SDS011;3028;49.468;7.694;2023-07-09T11:12:38;3.70;;;2.38;;
5999;SDS011;3028;49.468;7.694;2023-07-09T11:14:58;3.78;;;2.75;;
5999;SDS011;3028;49.468;7.694;2023-07-09T11:17:02;3.25;;;2.80;;
5999;SDS011;3028;49.468;7.694;2023-07-09T11:19:05;2.88;;;2.50;;
5999;SDS011;3028;49.468;7.694;2023-07-09T11:21:14;4.90;;;3.00;;
5999;SDS011;3028;49.468;7.694;2023-07-09T11:23:17;3.60;;;2.28;;
5999;SDS011;3028;49.468;7.694;2023-07-09T11:25:42;2.53;;;2.33;;
5999;SDS011;3028;49.468;7.694;2023-07-09T11:27:50;7.80;;;3.20;;
5999;SDS011;3028;49.468;7.694;2023-07-09T11:29:56;6.20;;;2.70;;
5999;SDS011;3028;49.468;7.694;2023-07-09T11:32:07;4.30;;;2.85;;
5999;SDS011;3028;49.468;7.694;2023-07-09T11:34:14;3.08;;;2.80;;
5999;SDS011;3028;49.468;7.694;2023-07-09T11:36:28;4.38;;;2.28;;
5999;SDS011;3028;49.468;7.694;2023-07-09T11:38:36;4.55;;;2.67;;
5999;SDS011;3028;49.468;7.694;2023-07-09T11:40:49;4.75;;;2.92;;
5999;SDS011;3028;49.468;7.694;2023-07-09T11:42:58;3.80;;;2.45;;
5999;SDS011;3028;49.468;7.694;2023-07-09T11:45:02;4.50;;;2.63;;
5999;SDS011;3028;49.468;7.694;2023-07-09T11:49:34;3.58;;;2.65;;
5999;SDS011;3028;49.468;7.694;2023-07-09T11:52:03;4.95;;;2.78;;
5999;SDS011;3028;49.468;7.694;2023-07-09T11:54:07;4.05;;;3.65;;
5999;SDS011;3028;49.468;7.694;2023-07-09T11:56:12;2.85;;;2.20;;
5999;SDS011;3028;49.468;7.694;2023-07-09T11:58:17;3.00;;;2.75;;
5999;SDS011;3028;49.468;7.694;2023-07-09T12:00:19;4.88;;;3.35;;
5999;SDS011;3028;49.468;7.694;2023-07-09T12:02:21;3.03;;;2.72;;
5999;SDS011;3028;49.468;7.694;2023-07-09T12:04:25;7.55;;;2.92;;
5999;SDS011;3028;49.468;7.694;2023-07-09T12:06:33;4.25;;;3.53;;
5999;SDS011;3028;49.468;7.694;2023-07-09T12:08:39;3.78;;;3.10;;
5999;SDS011;3028;49.468;7.694;2023-07-09T12:10:42;2.83;;;2.60;;
5999;SDS011;3028;49.468;7.694;2023-07-09T12:12:43;9.40;;;3.42;;
5999;SDS011;3028;49.468;7.694;2023-07-09T12:14:45;6.75;;;2.85;;
5999;SDS011;3028;49.468;7.694;2023-07-09T12:16:48;3.47;;;2.50;;
5999;SDS011;3028;49.468;7.694;2023-07-09T12:18:50;5.88;;;2.97;;
5999;SDS011;3028;49.468;7.694;2023-07-09T12:20:52;3.97;;;2.55;;
5999;SDS011;3028;49.468;7.694;2023-07-09T12:22:54;4.85;;;2.58;;
5999;SDS011;3028;49.468;7.694;2023-07-09T12:24:56;4.13;;;2.83;;
5999;SDS011;3028;49.468;7.694;2023-07-09T12:26:59;3.60;;;2.30;;
5999;SDS011;3028;49.468;7.694;2023-07-09T12:29:05;5.93;;;2.97;;
5999;SDS011;3028;49.468;7.694;2023-07-09T12:31:11;2.92;;;2.20;;
5999;SDS011;3028;49.468;7.694;2023-07-09T12:33:17;3.35;;;2.83;;
5999;SDS011;3028;49.468;7.694;2023-07-09T12:35:23;3.15;;;2.80;;
5999;SDS011;3028;49.468;7.694;2023-07-09T12:37:25;5.38;;;3.10;;
5999;SDS011;3028;49.468;7.694;2023-07-09T12:39:31;3.63;;;2.53;;
5999;SDS011;3028;49.468;7.694;2023-07-09T12:41:38;3.47;;;2.95;;
5999;SDS011;3028;49.468;7.694;2023-07-09T12:43:41;3.05;;;2.55;;
5999;SDS011;3028;49.468;7.694;2023-07-09T12:45:43;5.05;;;3.28;;
5999;SDS011;3028;49.468;7.694;2023-07-09T12:47:45;2.80;;;2.55;;
5999;SDS011;3028;49.468;7.694;2023-07-09T12:49:47;3.17;;;2.20;;
5999;SDS011;3028;49.468;7.694;2023-07-09T12:51:56;5.97;;;2.72;;
5999;SDS011;3028;49.468;7.694;2023-07-09T12:54:21;3.95;;;2.80;;
5999;SDS011;3028;49.468;7.694;2023-07-09T12:56:22;4.00;;;2.78;;
5999;SDS011;3028;49.468;7.694;2023-07-09T12:58:33;3.38;;;2.42;;
5999;SDS011;3028;49.468;7.694;2023-07-09T13:00:38;3.45;;;2.63;;
5999;SDS011;3028;49.468;7.694;2023-07-09T13:02:39;3.90;;;3.38;;
5999;SDS011;3028;49.468;7.694;2023-07-09T13:04:41;4.03;;;2.88;;
5999;SDS011;3028;49.468;7.694;2023-07-09T13:06:43;4.53;;;2.80;;
5999;SDS011;3028;49.468;7.694;2023-07-09T13:08:46;3.40;;;2.75;;
5999;SDS011;3028;49.468;7.694;2023-07-09T13:10:47;3.10;;;2.70;;
5999;SDS011;3028;49.468;7.694;2023-07-09T13:12:57;2.83;;;2.38;;
5999;SDS011;3028;49.468;7.694;2023-07-09T13:15:02;2.17;;;1.98;;
5999;SDS011;3028;49.468;7.694;2023-07-09T13:17:05;2.75;;;2.28;;
5999;SDS011;3028;49.468;7.694;2023-07-09T13:19:07;4.82;;;3.22;;
5999;SDS011;3028;49.468;7.694;2023-07-09T13:21:13;2.92;;;2.38;;